sensor_id;sensor_type;location;lat;lon;timestamp;temperature;humidity
1700;DHT22;847;48.058;7.810;2023-03-03T00:00:40;2.30;94.20
1700;DHT22;847;48.058;7.810;2023-03-03T00:03:09;2.10;94.80
1700;DHT22;847;48.058;7.810;2023-03-03T00:05:38;2.00;95.90
1700;DHT22;847;48.058;7.810;2023-03-03T00:08:05;2.10;96.40
1700;DHT22;847;48.058;7.810;2023-03-03T00:10:32;2.10;96.60
1700;DHT22;847;48.058;7.810;2023-03-03T00:12:59;2.20;96.60
1700;DHT22;847;48.058;7.810;2023-03-03T00:15:27;2.20;96.50
1700;DHT22;847;48.058;7.810;2023-03-03T00:17:55;2.20;96.30
1700;DHT22;847;48.058;7.810;2023-03-03T00:20:30;2.10;96.60
1700;DHT22;847;48.058;7.810;2023-03-03T00:23:08;2.20;96.50
1700;DHT22;847;48.058;7.810;2023-03-03T00:25:42;2.10;96.20
1700;DHT22;847;48.058;7.810;2023-03-03T00:28:21;2.00;95.90
1700;DHT22;847;48.058;7.810;2023-03-03T00:30:49;2.00;96.00
1700;DHT22;847;48.058;7.810;2023-03-03T00:33:25;2.00;95.80
1700;DHT22;847;48.058;7.810;2023-03-03T00:36:05;1.90;95.90
1700;DHT22;847;48.058;7.810;2023-03-03T00:38:36;1.90;96.00
1700;DHT22;847;48.058;7.810;2023-03-03T00:41:13;2.00;95.90
1700;DHT22;847;48.058;7.810;2023-03-03T00:43:42;2.00;95.70
1700;DHT22;847;48.058;7.810;2023-03-03T00:46:09;2.00;95.60
1700;DHT22;847;48.058;7.810;2023-03-03T00:48:41;1.90;95.60
1700;DHT22;847;48.058;7.810;2023-03-03T00:51:20;1.90;95.70
1700;DHT22;847;48.058;7.810;2023-03-03T00:53:52;1.80;95.60
1700;DHT22;847;48.058;7.810;2023-03-03T00:56:19;1.90;95.40
1700;DHT22;847;48.058;7.810;2023-03-03T00:58:46;1.70;95.50
1700;DHT22;847;48.058;7.810;2023-03-03T01:01:13;1.70;96.10
1700;DHT22;847;48.058;7.810;2023-03-03T01:03:40;1.90;95.70
1700;DHT22;847;48.058;7.810;2023-03-03T01:06:07;2.00;95.00
1700;DHT22;847;48.058;7.810;2023-03-03T01:08:35;2.00;95.20
1700;DHT22;847;48.058;7.810;2023-03-03T01:11:06;2.20;94.50
1700;DHT22;847;48.058;7.810;2023-03-03T01:13:35;2.20;94.30
1700;DHT22;847;48.058;7.810;2023-03-03T01:16:03;2.10;94.50
1700;DHT22;847;48.058;7.810;2023-03-03T01:18:30;2.00;94.80
1700;DHT22;847;48.058;7.810;2023-03-03T01:20:57;1.80;95.20
1700;DHT22;847;48.058;7.810;2023-03-03T01:23:24;1.70;95.30
1700;DHT22;847;48.058;7.810;2023-03-03T01:25:51;1.60;95.90
1700;DHT22;847;48.058;7.810;2023-03-03T01:28:19;1.50;96.70
1700;DHT22;847;48.058;7.810;2023-03-03T01:30:46;1.50;97.00
1700;DHT22;847;48.058;7.810;2023-03-03T01:33:13;1.50;96.90
1700;DHT22;847;48.058;7.810;2023-03-03T01:35:43;1.50;96.90
1700;DHT22;847;48.058;7.810;2023-03-03T01:38:10;1.50;96.70
1700;DHT22;847;48.058;7.810;2023-03-03T01:40:37;1.50;96.60
1700;DHT22;847;48.058;7.810;2023-03-03T01:43:03;1.60;96.40
1700;DHT22;847;48.058;7.810;2023-03-03T01:45:41;1.60;96.80
1700;DHT22;847;48.058;7.810;2023-03-03T01:48:13;1.50;96.70
1700;DHT22;847;48.058;7.810;2023-03-03T01:50:45;1.50;96.90
1700;DHT22;847;48.058;7.810;2023-03-03T01:53:17;1.60;97.30
1700;DHT22;847;48.058;7.810;2023-03-03T01:55:45;1.60;97.00
1700;DHT22;847;48.058;7.810;2023-03-03T01:58:19;1.60;97.30
1700;DHT22;847;48.058;7.810;2023-03-03T02:00:52;1.70;97.00
1700;DHT22;847;48.058;7.810;2023-03-03T02:03:21;1.80;96.70
1700;DHT22;847;48.058;7.810;2023-03-03T02:05:50;1.80;96.50
1700;DHT22;847;48.058;7.810;2023-03-03T02:08:25;1.80;96.40
1700;DHT22;847;48.058;7.810;2023-03-03T02:10:54;1.90;96.50
1700;DHT22;847;48.058;7.810;2023-03-03T02:13:21;1.90;96.70
1700;DHT22;847;48.058;7.810;2023-03-03T02:15:49;1.80;96.90
1700;DHT22;847;48.058;7.810;2023-03-03T02:18:19;1.90;96.80
1700;DHT22;847;48.058;7.810;2023-03-03T02:20:53;1.90;96.80
1700;DHT22;847;48.058;7.810;2023-03-03T02:23:28;1.80;96.90
1700;DHT22;847;48.058;7.810;2023-03-03T02:26:05;1.70;97.40
1700;DHT22;847;48.058;7.810;2023-03-03T02:28:35;1.50;97.90
1700;DHT22;847;48.058;7.810;2023-03-03T02:31:04;1.40;98.70
1700;DHT22;847;48.058;7.810;2023-03-03T02:33:31;1.40;98.40
1700;DHT22;847;48.058;7.810;2023-03-03T02:35:58;1.30;98.30
1700;DHT22;847;48.058;7.810;2023-03-03T02:38:28;1.30;98.30
1700;DHT22;847;48.058;7.810;2023-03-03T02:41:01;1.20;98.70
1700;DHT22;847;48.058;7.810;2023-03-03T02:43:38;1.30;98.40
1700;DHT22;847;48.058;7.810;2023-03-03T02:46:06;1.40;97.70
1700;DHT22;847;48.058;7.810;2023-03-03T02:48:32;1.40;97.40
1700;DHT22;847;48.058;7.810;2023-03-03T02:50:59;1.30;97.70
1700;DHT22;847;48.058;7.810;2023-03-03T02:53:26;1.30;97.60
1700;DHT22;847;48.058;7.810;2023-03-03T02:55:53;1.30;97.50
1700;DHT22;847;48.058;7.810;2023-03-03T02:58:20;1.30;97.10
1700;DHT22;847;48.058;7.810;2023-03-03T03:00:48;1.10;97.40
1700;DHT22;847;48.058;7.810;2023-03-03T03:03:15;1.30;97.40
1700;DHT22;847;48.058;7.810;2023-03-03T03:05:41;1.40;97.20
1700;DHT22;847;48.058;7.810;2023-03-03T03:08:08;1.40;97.30
1700;DHT22;847;48.058;7.810;2023-03-03T03:10:35;1.30;97.50
1700;DHT22;847;48.058;7.810;2023-03-03T03:13:02;1.20;97.60
1700;DHT22;847;48.058;7.810;2023-03-03T03:15:29;1.20;98.20
1700;DHT22;847;48.058;7.810;2023-03-03T03:17:57;1.20;98.00
1700;DHT22;847;48.058;7.810;2023-03-03T03:20:25;1.20;97.90
1700;DHT22;847;48.058;7.810;2023-03-03T03:22:52;1.10;98.20
1700;DHT22;847;48.058;7.810;2023-03-03T03:25:18;1.10;98.40
1700;DHT22;847;48.058;7.810;2023-03-03T03:27:45;1.00;98.70
1700;DHT22;847;48.058;7.810;2023-03-03T03:30:12;1.00;98.70
1700;DHT22;847;48.058;7.810;2023-03-03T03:32:39;0.90;98.90
1700;DHT22;847;48.058;7.810;2023-03-03T03:35:08;1.00;99.00
1700;DHT22;847;48.058;7.810;2023-03-03T03:37:35;1.10;99.00
1700;DHT22;847;48.058;7.810;2023-03-03T03:40:03;1.10;98.80
1700;DHT22;847;48.058;7.810;2023-03-03T03:42:31;1.10;98.90
1700;DHT22;847;48.058;7.810;2023-03-03T03:44:57;1.00;98.80
1700;DHT22;847;48.058;7.810;2023-03-03T03:47:24;1.00;99.00
1700;DHT22;847;48.058;7.810;2023-03-03T03:49:51;1.00;99.00
1700;DHT22;847;48.058;7.810;2023-03-03T03:52:19;1.00;98.80
1700;DHT22;847;48.058;7.810;2023-03-03T03:54:46;0.90;98.90
1700;DHT22;847;48.058;7.810;2023-03-03T03:57:12;0.90;99.00
1700;DHT22;847;48.058;7.810;2023-03-03T03:59:39;0.90;99.00
1700;DHT22;847;48.058;7.810;2023-03-03T04:02:06;1.00;98.90
1700;DHT22;847;48.058;7.810;2023-03-03T04:04:33;0.90;99.00
1700;DHT22;847;48.058;7.810;2023-03-03T04:06:59;0.80;99.00
1700;DHT22;847;48.058;7.810;2023-03-03T04:09:27;0.70;99.00
1700;DHT22;847;48.058;7.810;2023-03-03T04:11:57;0.70;99.00
1700;DHT22;847;48.058;7.810;2023-03-03T04:14:24;0.70;99.00
1700;DHT22;847;48.058;7.810;2023-03-03T04:16:51;0.70;99.00
1700;DHT22;847;48.058;7.810;2023-03-03T04:19:17;0.60;99.00
1700;DHT22;847;48.058;7.810;2023-03-03T04:21:44;0.60;99.00
1700;DHT22;847;48.058;7.810;2023-03-03T04:24:11;0.70;99.00
1700;DHT22;847;48.058;7.810;2023-03-03T04:26:39;0.70;98.90
1700;DHT22;847;48.058;7.810;2023-03-03T04:29:09;0.80;98.80
1700;DHT22;847;48.058;7.810;2023-03-03T04:31:35;0.80;98.30
1700;DHT22;847;48.058;7.810;2023-03-03T04:34:02;0.90;98.60
1700;DHT22;847;48.058;7.810;2023-03-03T04:36:29;0.70;98.20
1700;DHT22;847;48.058;7.810;2023-03-03T04:38:56;0.80;98.60
1700;DHT22;847;48.058;7.810;2023-03-03T04:41:23;0.80;98.40
1700;DHT22;847;48.058;7.810;2023-03-03T04:43:51;0.80;98.60
1700;DHT22;847;48.058;7.810;2023-03-03T04:46:18;0.70;98.90
1700;DHT22;847;48.058;7.810;2023-03-03T04:48:45;0.80;99.00
1700;DHT22;847;48.058;7.810;2023-03-03T04:51:12;0.70;99.00
1700;DHT22;847;48.058;7.810;2023-03-03T04:53:41;0.80;99.00
1700;DHT22;847;48.058;7.810;2023-03-03T04:56:08;0.90;99.00
1700;DHT22;847;48.058;7.810;2023-03-03T04:58:34;0.90;99.00
1700;DHT22;847;48.058;7.810;2023-03-03T05:01:03;0.80;99.00
1700;DHT22;847;48.058;7.810;2023-03-03T05:03:29;0.70;99.00
1700;DHT22;847;48.058;7.810;2023-03-03T05:05:56;0.70;99.00
1700;DHT22;847;48.058;7.810;2023-03-03T05:08:23;0.80;99.00
1700;DHT22;847;48.058;7.810;2023-03-03T05:10:51;0.90;99.00
1700;DHT22;847;48.058;7.810;2023-03-03T05:13:18;0.90;99.00
1700;DHT22;847;48.058;7.810;2023-03-03T05:15:48;0.90;99.00
1700;DHT22;847;48.058;7.810;2023-03-03T05:18:17;0.90;99.00
1700;DHT22;847;48.058;7.810;2023-03-03T05:20:44;1.00;99.00
1700;DHT22;847;48.058;7.810;2023-03-03T05:23:10;0.90;99.00
1700;DHT22;847;48.058;7.810;2023-03-03T05:25:39;0.90;99.00
1700;DHT22;847;48.058;7.810;2023-03-03T05:28:06;0.90;99.00
1700;DHT22;847;48.058;7.810;2023-03-03T05:30:32;0.80;99.00
1700;DHT22;847;48.058;7.810;2023-03-03T05:32:59;0.90;99.00
1700;DHT22;847;48.058;7.810;2023-03-03T05:35:27;0.90;99.00
1700;DHT22;847;48.058;7.810;2023-03-03T05:37:54;1.00;99.00
1700;DHT22;847;48.058;7.810;2023-03-03T05:40:22;1.00;99.00
1700;DHT22;847;48.058;7.810;2023-03-03T05:42:49;1.00;99.00
1700;DHT22;847;48.058;7.810;2023-03-03T05:45:16;1.10;99.00
1700;DHT22;847;48.058;7.810;2023-03-03T05:47:44;1.10;99.00
1700;DHT22;847;48.058;7.810;2023-03-03T05:50:11;1.20;99.00
1700;DHT22;847;48.058;7.810;2023-03-03T05:52:40;1.10;99.00
1700;DHT22;847;48.058;7.810;2023-03-03T05:55:07;1.10;99.00
1700;DHT22;847;48.058;7.810;2023-03-03T05:57:34;1.00;99.00
1700;DHT22;847;48.058;7.810;2023-03-03T06:00:01;1.00;99.00
1700;DHT22;847;48.058;7.810;2023-03-03T06:02:28;1.10;99.00
1700;DHT22;847;48.058;7.810;2023-03-03T06:04:55;1.00;99.00
1700;DHT22;847;48.058;7.810;2023-03-03T06:07:22;0.90;99.00
1700;DHT22;847;48.058;7.810;2023-03-03T06:09:50;0.90;99.00
1700;DHT22;847;48.058;7.810;2023-03-03T06:12:17;1.00;99.00
1700;DHT22;847;48.058;7.810;2023-03-03T06:14:44;1.00;99.00
1700;DHT22;847;48.058;7.810;2023-03-03T06:17:10;1.10;99.00
1700;DHT22;847;48.058;7.810;2023-03-03T06:19:37;1.10;99.00
1700;DHT22;847;48.058;7.810;2023-03-03T06:22:06;1.10;99.00
1700;DHT22;847;48.058;7.810;2023-03-03T06:24:33;1.10;99.00
1700;DHT22;847;48.058;7.810;2023-03-03T06:27:01;1.20;99.00
1700;DHT22;847;48.058;7.810;2023-03-03T06:29:28;1.20;99.00
1700;DHT22;847;48.058;7.810;2023-03-03T06:31:55;1.10;99.00
1700;DHT22;847;48.058;7.810;2023-03-03T06:34:22;1.10;99.00
1700;DHT22;847;48.058;7.810;2023-03-03T06:36:48;1.20;99.00
1700;DHT22;847;48.058;7.810;2023-03-03T06:39:15;1.20;99.00
1700;DHT22;847;48.058;7.810;2023-03-03T06:41:42;1.10;99.00
1700;DHT22;847;48.058;7.810;2023-03-03T06:44:11;1.10;99.00
1700;DHT22;847;48.058;7.810;2023-03-03T06:46:37;1.10;99.00
1700;DHT22;847;48.058;7.810;2023-03-03T06:49:04;1.20;99.00
1700;DHT22;847;48.058;7.810;2023-03-03T06:51:33;1.30;99.00
1700;DHT22;847;48.058;7.810;2023-03-03T06:54:05;1.40;99.00
1700;DHT22;847;48.058;7.810;2023-03-03T06:56:36;1.50;99.00
1700;DHT22;847;48.058;7.810;2023-03-03T06:59:12;1.50;99.00
1700;DHT22;847;48.058;7.810;2023-03-03T07:01:39;1.60;99.00
1700;DHT22;847;48.058;7.810;2023-03-03T07:04:14;1.60;99.00
1700;DHT22;847;48.058;7.810;2023-03-03T07:06:42;1.60;99.00
1700;DHT22;847;48.058;7.810;2023-03-03T07:09:14;1.50;99.00
1700;DHT22;847;48.058;7.810;2023-03-03T07:11:42;1.50;99.00
1700;DHT22;847;48.058;7.810;2023-03-03T07:14:15;1.50;99.00
1700;DHT22;847;48.058;7.810;2023-03-03T07:16:42;1.50;99.00
1700;DHT22;847;48.058;7.810;2023-03-03T07:19:16;1.40;99.00
1700;DHT22;847;48.058;7.810;2023-03-03T07:21:44;1.40;99.00
1700;DHT22;847;48.058;7.810;2023-03-03T07:24:21;1.40;99.00
1700;DHT22;847;48.058;7.810;2023-03-03T07:26:50;1.30;99.00
1700;DHT22;847;48.058;7.810;2023-03-03T07:29:23;1.30;99.00
1700;DHT22;847;48.058;7.810;2023-03-03T07:31:50;1.40;99.00
1700;DHT22;847;48.058;7.810;2023-03-03T07:34:21;1.50;99.00
1700;DHT22;847;48.058;7.810;2023-03-03T07:36:49;1.50;99.00
1700;DHT22;847;48.058;7.810;2023-03-03T07:39:27;1.60;99.00
1700;DHT22;847;48.058;7.810;2023-03-03T07:42:02;1.60;99.00
1700;DHT22;847;48.058;7.810;2023-03-03T07:44:37;1.60;99.00
1700;DHT22;847;48.058;7.810;2023-03-03T07:47:17;1.60;99.00
1700;DHT22;847;48.058;7.810;2023-03-03T07:49:46;1.70;99.00
1700;DHT22;847;48.058;7.810;2023-03-03T07:52:22;1.70;99.00
1700;DHT22;847;48.058;7.810;2023-03-03T07:54:50;1.70;99.00
1700;DHT22;847;48.058;7.810;2023-03-03T07:57:24;1.70;99.00
1700;DHT22;847;48.058;7.810;2023-03-03T07:59:54;1.70;99.00
1700;DHT22;847;48.058;7.810;2023-03-03T08:02:37;1.70;99.00
1700;DHT22;847;48.058;7.810;2023-03-03T08:05:27;1.70;99.00
1700;DHT22;847;48.058;7.810;2023-03-03T08:07:58;1.80;99.00
1700;DHT22;847;48.058;7.810;2023-03-03T08:10:34;1.90;99.00
1700;DHT22;847;48.058;7.810;2023-03-03T08:13:12;1.80;99.00
1700;DHT22;847;48.058;7.810;2023-03-03T08:20:55;1.90;99.00
1700;DHT22;847;48.058;7.810;2023-03-03T08:23:23;2.00;99.00
1700;DHT22;847;48.058;7.810;2023-03-03T08:25:51;2.10;99.00
1700;DHT22;847;48.058;7.810;2023-03-03T08:28:19;2.20;99.00
1700;DHT22;847;48.058;7.810;2023-03-03T08:30:47;2.20;99.00
1700;DHT22;847;48.058;7.810;2023-03-03T08:33:15;2.20;99.00
1700;DHT22;847;48.058;7.810;2023-03-03T08:35:42;2.30;99.00
1700;DHT22;847;48.058;7.810;2023-03-03T08:38:12;2.30;99.00
1700;DHT22;847;48.058;7.810;2023-03-03T08:45:51;2.60;99.00
1700;DHT22;847;48.058;7.810;2023-03-03T08:48:19;2.90;99.00
1700;DHT22;847;48.058;7.810;2023-03-03T08:50:46;3.10;99.00
1700;DHT22;847;48.058;7.810;2023-03-03T08:53:15;3.40;99.00
1700;DHT22;847;48.058;7.810;2023-03-03T08:55:42;3.90;99.00
1700;DHT22;847;48.058;7.810;2023-03-03T08:58:09;4.10;99.00
1700;DHT22;847;48.058;7.810;2023-03-03T09:00:36;4.10;98.80
1700;DHT22;847;48.058;7.810;2023-03-03T09:03:03;3.80;98.50
1700;DHT22;847;48.058;7.810;2023-03-03T09:05:32;3.60;99.00
1700;DHT22;847;48.058;7.810;2023-03-03T09:07:59;4.00;99.00
1700;DHT22;847;48.058;7.810;2023-03-03T09:10:28;3.90;98.00
1700;DHT22;847;48.058;7.810;2023-03-03T09:12:57;3.90;98.20
1700;DHT22;847;48.058;7.810;2023-03-03T09:15:28;3.80;98.60
1700;DHT22;847;48.058;7.810;2023-03-03T09:17:57;3.70;99.00
1700;DHT22;847;48.058;7.810;2023-03-03T09:20:33;3.70;99.00
1700;DHT22;847;48.058;7.810;2023-03-03T09:23:30;3.90;99.00
1700;DHT22;847;48.058;7.810;2023-03-03T09:26:15;4.10;99.00
1700;DHT22;847;48.058;7.810;2023-03-03T09:28:46;4.10;98.60
1700;DHT22;847;48.058;7.810;2023-03-03T09:31:24;4.10;98.20
1700;DHT22;847;48.058;7.810;2023-03-03T09:33:52;4.20;98.40
1700;DHT22;847;48.058;7.810;2023-03-03T09:36:25;4.20;98.60
1700;DHT22;847;48.058;7.810;2023-03-03T09:38:52;4.20;98.90
1700;DHT22;847;48.058;7.810;2023-03-03T09:41:49;4.00;98.70
1700;DHT22;847;48.058;7.810;2023-03-03T09:44:54;4.00;99.00
1700;DHT22;847;48.058;7.810;2023-03-03T09:47:47;4.10;99.00
1700;DHT22;847;48.058;7.810;2023-03-03T09:50:25;4.10;98.70
1700;DHT22;847;48.058;7.810;2023-03-03T09:53:07;4.20;98.90
1700;DHT22;847;48.058;7.810;2023-03-03T09:55:49;4.30;98.90
1700;DHT22;847;48.058;7.810;2023-03-03T09:58:41;4.30;98.80
1700;DHT22;847;48.058;7.810;2023-03-03T10:01:32;4.30;99.00
1700;DHT22;847;48.058;7.810;2023-03-03T10:04:24;4.30;99.00
1700;DHT22;847;48.058;7.810;2023-03-03T10:07:06;4.30;99.00
1700;DHT22;847;48.058;7.810;2023-03-03T10:09:49;4.30;99.00
1700;DHT22;847;48.058;7.810;2023-03-03T10:12:26;4.30;99.00
1700;DHT22;847;48.058;7.810;2023-03-03T10:15:16;4.30;99.00
1700;DHT22;847;48.058;7.810;2023-03-03T10:17:49;4.30;99.00
1700;DHT22;847;48.058;7.810;2023-03-03T10:20:37;4.40;99.00
1700;DHT22;847;48.058;7.810;2023-03-03T10:23:17;4.40;99.00
1700;DHT22;847;48.058;7.810;2023-03-03T10:26:04;4.50;99.00
1700;DHT22;847;48.058;7.810;2023-03-03T10:28:51;4.50;99.00
1700;DHT22;847;48.058;7.810;2023-03-03T10:31:33;4.60;98.90
1700;DHT22;847;48.058;7.810;2023-03-03T10:34:14;4.70;98.80
1700;DHT22;847;48.058;7.810;2023-03-03T10:36:52;4.70;98.90
1700;DHT22;847;48.058;7.810;2023-03-03T10:39:51;4.80;98.50
1700;DHT22;847;48.058;7.810;2023-03-03T10:42:44;4.90;98.30
1700;DHT22;847;48.058;7.810;2023-03-03T10:45:32;5.00;97.40
1700;DHT22;847;48.058;7.810;2023-03-03T10:48:35;5.10;97.90
1700;DHT22;847;48.058;7.810;2023-03-03T10:51:14;5.20;97.60
1700;DHT22;847;48.058;7.810;2023-03-03T10:54:08;5.20;96.60
1700;DHT22;847;48.058;7.810;2023-03-03T10:56:46;5.30;96.70
1700;DHT22;847;48.058;7.810;2023-03-03T10:59:35;5.50;96.90
1700;DHT22;847;48.058;7.810;2023-03-03T11:02:07;5.50;95.30
1700;DHT22;847;48.058;7.810;2023-03-03T11:07:40;5.70;96.30
1700;DHT22;847;48.058;7.810;2023-03-03T11:10:20;5.80;95.20
1700;DHT22;847;48.058;7.810;2023-03-03T11:12:56;5.80;94.30
1700;DHT22;847;48.058;7.810;2023-03-03T11:15:44;5.90;94.50
1700;DHT22;847;48.058;7.810;2023-03-03T11:21:11;5.90;93.90
1700;DHT22;847;48.058;7.810;2023-03-03T11:24:11;5.80;95.20
1700;DHT22;847;48.058;7.810;2023-03-03T11:27:11;5.90;94.70
1700;DHT22;847;48.058;7.810;2023-03-03T11:30:02;6.00;94.30
1700;DHT22;847;48.058;7.810;2023-03-03T11:32:40;6.10;93.90
1700;DHT22;847;48.058;7.810;2023-03-03T11:35:21;6.10;94.10
1700;DHT22;847;48.058;7.810;2023-03-03T11:37:59;6.10;94.00
1700;DHT22;847;48.058;7.810;2023-03-03T11:40:35;6.00;94.30
1700;DHT22;847;48.058;7.810;2023-03-03T11:43:11;6.20;94.80
1700;DHT22;847;48.058;7.810;2023-03-03T11:45:43;6.30;94.10
1700;DHT22;847;48.058;7.810;2023-03-03T11:48:17;6.40;93.20
1700;DHT22;847;48.058;7.810;2023-03-03T11:50:54;6.30;92.30
1700;DHT22;847;48.058;7.810;2023-03-03T11:53:38;6.40;92.30
1700;DHT22;847;48.058;7.810;2023-03-03T11:56:20;6.40;92.90
1700;DHT22;847;48.058;7.810;2023-03-03T11:59:03;6.40;91.80
1700;DHT22;847;48.058;7.810;2023-03-03T12:01:38;6.40;92.50
1700;DHT22;847;48.058;7.810;2023-03-03T12:04:11;6.50;91.70
1700;DHT22;847;48.058;7.810;2023-03-03T12:06:52;6.50;91.30
1700;DHT22;847;48.058;7.810;2023-03-03T12:09:38;6.50;91.70
1700;DHT22;847;48.058;7.810;2023-03-03T12:12:13;6.40;91.20
1700;DHT22;847;48.058;7.810;2023-03-03T12:17:49;6.50;91.60
1700;DHT22;847;48.058;7.810;2023-03-03T12:20:22;6.50;91.80
1700;DHT22;847;48.058;7.810;2023-03-03T12:23:02;6.50;91.90
1700;DHT22;847;48.058;7.810;2023-03-03T12:25:39;6.50;92.30
1700;DHT22;847;48.058;7.810;2023-03-03T12:28:12;6.50;92.30
1700;DHT22;847;48.058;7.810;2023-03-03T12:30:56;6.60;93.60
1700;DHT22;847;48.058;7.810;2023-03-03T12:33:36;6.70;93.50
1700;DHT22;847;48.058;7.810;2023-03-03T12:36:15;6.80;93.30
1700;DHT22;847;48.058;7.810;2023-03-03T12:38:49;6.90;91.80
1700;DHT22;847;48.058;7.810;2023-03-03T12:41:28;6.90;92.20
1700;DHT22;847;48.058;7.810;2023-03-03T12:44:03;6.90;92.00
1700;DHT22;847;48.058;7.810;2023-03-03T12:46:43;6.90;91.50
1700;DHT22;847;48.058;7.810;2023-03-03T12:49:11;6.90;91.40
1700;DHT22;847;48.058;7.810;2023-03-03T12:51:49;6.90;92.00
1700;DHT22;847;48.058;7.810;2023-03-03T12:54:44;6.90;91.40
1700;DHT22;847;48.058;7.810;2023-03-03T12:57:26;7.00;91.60
1700;DHT22;847;48.058;7.810;2023-03-03T13:00:27;7.10;91.50
1700;DHT22;847;48.058;7.810;2023-03-03T13:03:01;7.20;90.70
1700;DHT22;847;48.058;7.810;2023-03-03T13:05:43;7.20;91.10
1700;DHT22;847;48.058;7.810;2023-03-03T13:08:30;7.20;90.30
1700;DHT22;847;48.058;7.810;2023-03-03T13:11:11;7.20;90.00
1700;DHT22;847;48.058;7.810;2023-03-03T13:13:47;7.20;90.90
1700;DHT22;847;48.058;7.810;2023-03-03T13:16:24;7.30;90.00
1700;DHT22;847;48.058;7.810;2023-03-03T13:18:59;7.20;89.50
1700;DHT22;847;48.058;7.810;2023-03-03T13:21:34;7.20;90.10
1700;DHT22;847;48.058;7.810;2023-03-03T13:24:12;7.30;91.10
1700;DHT22;847;48.058;7.810;2023-03-03T13:26:46;7.40;90.20
1700;DHT22;847;48.058;7.810;2023-03-03T13:29:24;7.40;90.20
1700;DHT22;847;48.058;7.810;2023-03-03T13:31:55;7.30;89.60
1700;DHT22;847;48.058;7.810;2023-03-03T13:34:32;7.30;89.80
1700;DHT22;847;48.058;7.810;2023-03-03T13:37:06;7.30;90.50
1700;DHT22;847;48.058;7.810;2023-03-03T13:39:50;7.40;90.60
1700;DHT22;847;48.058;7.810;2023-03-03T13:42:27;7.40;90.10
1700;DHT22;847;48.058;7.810;2023-03-03T13:45:01;7.40;90.30
1700;DHT22;847;48.058;7.810;2023-03-03T13:47:37;7.40;89.70
1700;DHT22;847;48.058;7.810;2023-03-03T13:50:19;7.50;90.50
1700;DHT22;847;48.058;7.810;2023-03-03T13:52:59;7.50;89.50
1700;DHT22;847;48.058;7.810;2023-03-03T13:55:34;7.50;89.60
1700;DHT22;847;48.058;7.810;2023-03-03T13:58:10;7.50;90.40
1700;DHT22;847;48.058;7.810;2023-03-03T14:00:56;7.50;89.90
1700;DHT22;847;48.058;7.810;2023-03-03T14:03:51;7.50;89.70
1700;DHT22;847;48.058;7.810;2023-03-03T14:06:25;7.60;89.70
1700;DHT22;847;48.058;7.810;2023-03-03T14:09:34;7.60;89.80
1700;DHT22;847;48.058;7.810;2023-03-03T14:12:16;7.50;88.40
1700;DHT22;847;48.058;7.810;2023-03-03T14:14:58;7.60;88.80
1700;DHT22;847;48.058;7.810;2023-03-03T14:20:19;7.70;88.70
1700;DHT22;847;48.058;7.810;2023-03-03T14:22:52;7.70;88.80
1700;DHT22;847;48.058;7.810;2023-03-03T14:25:19;7.80;88.60
1700;DHT22;847;48.058;7.810;2023-03-03T14:28:02;7.80;88.70
1700;DHT22;847;48.058;7.810;2023-03-03T14:30:33;7.80;88.40
1700;DHT22;847;48.058;7.810;2023-03-03T14:33:17;7.80;87.50
1700;DHT22;847;48.058;7.810;2023-03-03T14:35:50;7.80;88.10
1700;DHT22;847;48.058;7.810;2023-03-03T14:38:18;7.80;87.20
1700;DHT22;847;48.058;7.810;2023-03-03T14:40:47;7.80;87.20
1700;DHT22;847;48.058;7.810;2023-03-03T14:43:23;7.80;86.60
1700;DHT22;847;48.058;7.810;2023-03-03T14:45:51;7.90;87.30
1700;DHT22;847;48.058;7.810;2023-03-03T14:48:21;7.90;86.10
1700;DHT22;847;48.058;7.810;2023-03-03T14:50:49;8.00;86.50
1700;DHT22;847;48.058;7.810;2023-03-03T14:53:28;7.90;85.90
1700;DHT22;847;48.058;7.810;2023-03-03T14:56:14;7.90;85.80
1700;DHT22;847;48.058;7.810;2023-03-03T14:58:41;7.90;86.20
1700;DHT22;847;48.058;7.810;2023-03-03T15:01:14;8.00;86.70
1700;DHT22;847;48.058;7.810;2023-03-03T15:03:47;8.10;86.40
1700;DHT22;847;48.058;7.810;2023-03-03T15:06:34;8.10;86.00
1700;DHT22;847;48.058;7.810;2023-03-03T15:09:24;8.20;86.70
1700;DHT22;847;48.058;7.810;2023-03-03T15:11:56;8.20;86.30
1700;DHT22;847;48.058;7.810;2023-03-03T15:14:29;8.20;86.20
1700;DHT22;847;48.058;7.810;2023-03-03T15:17:10;8.20;86.50
1700;DHT22;847;48.058;7.810;2023-03-03T15:19:59;8.20;86.30
1700;DHT22;847;48.058;7.810;2023-03-03T15:22:40;8.20;86.80
1700;DHT22;847;48.058;7.810;2023-03-03T15:25:17;8.10;86.40
1700;DHT22;847;48.058;7.810;2023-03-03T15:27:50;8.10;86.00
1700;DHT22;847;48.058;7.810;2023-03-03T15:30:23;8.00;85.90
1700;DHT22;847;48.058;7.810;2023-03-03T15:32:58;8.10;86.80
1700;DHT22;847;48.058;7.810;2023-03-03T15:38:47;8.10;86.20
1700;DHT22;847;48.058;7.810;2023-03-03T15:41:25;8.20;86.80
1700;DHT22;847;48.058;7.810;2023-03-03T15:44:09;8.20;86.10
1700;DHT22;847;48.058;7.810;2023-03-03T15:46:55;8.20;86.70
1700;DHT22;847;48.058;7.810;2023-03-03T15:49:40;8.20;86.10
1700;DHT22;847;48.058;7.810;2023-03-03T15:52:22;8.20;86.30
1700;DHT22;847;48.058;7.810;2023-03-03T15:55:09;8.20;85.70
1700;DHT22;847;48.058;7.810;2023-03-03T15:57:47;8.20;85.80
1700;DHT22;847;48.058;7.810;2023-03-03T16:03:11;8.30;86.30
1700;DHT22;847;48.058;7.810;2023-03-03T16:05:48;8.30;86.40
1700;DHT22;847;48.058;7.810;2023-03-03T16:08:23;8.30;86.50
1700;DHT22;847;48.058;7.810;2023-03-03T16:11:01;8.30;86.80
1700;DHT22;847;48.058;7.810;2023-03-03T16:13:42;8.30;86.60
1700;DHT22;847;48.058;7.810;2023-03-03T16:16:23;8.30;86.60
1700;DHT22;847;48.058;7.810;2023-03-03T16:19:02;8.30;86.50
1700;DHT22;847;48.058;7.810;2023-03-03T16:21:52;8.30;86.80
1700;DHT22;847;48.058;7.810;2023-03-03T16:24:28;8.30;86.90
1700;DHT22;847;48.058;7.810;2023-03-03T16:27:04;8.30;86.70
1700;DHT22;847;48.058;7.810;2023-03-03T16:29:40;8.30;86.60
1700;DHT22;847;48.058;7.810;2023-03-03T16:32:11;8.30;86.40
1700;DHT22;847;48.058;7.810;2023-03-03T16:34:53;8.20;86.30
1700;DHT22;847;48.058;7.810;2023-03-03T16:37:26;8.20;86.90
1700;DHT22;847;48.058;7.810;2023-03-03T16:39:58;8.20;87.40
1700;DHT22;847;48.058;7.810;2023-03-03T16:47:54;8.10;88.00
1700;DHT22;847;48.058;7.810;2023-03-03T16:50:30;8.10;87.80
1700;DHT22;847;48.058;7.810;2023-03-03T16:53:13;8.00;87.90
1700;DHT22;847;48.058;7.810;2023-03-03T16:55:51;8.10;88.00
1700;DHT22;847;48.058;7.810;2023-03-03T16:58:29;8.00;88.50
1700;DHT22;847;48.058;7.810;2023-03-03T17:01:24;8.00;88.50
1700;DHT22;847;48.058;7.810;2023-03-03T17:03:58;8.00;88.50
1700;DHT22;847;48.058;7.810;2023-03-03T17:06:35;8.00;88.90
1700;DHT22;847;48.058;7.810;2023-03-03T17:09:30;8.00;88.90
1700;DHT22;847;48.058;7.810;2023-03-03T17:17:33;7.90;89.20
1700;DHT22;847;48.058;7.810;2023-03-03T17:20:31;7.90;89.30
1700;DHT22;847;48.058;7.810;2023-03-03T17:49:27;7.40;92.90
1700;DHT22;847;48.058;7.810;2023-03-03T17:57:22;7.20;92.80
1700;DHT22;847;48.058;7.810;2023-03-03T18:00:13;7.20;92.70
1700;DHT22;847;48.058;7.810;2023-03-03T18:03:11;7.10;92.70
1700;DHT22;847;48.058;7.810;2023-03-03T18:06:17;7.00;93.30
1700;DHT22;847;48.058;7.810;2023-03-03T18:09:21;6.90;93.70
1700;DHT22;847;48.058;7.810;2023-03-03T18:12:08;7.00;93.70
1700;DHT22;847;48.058;7.810;2023-03-03T18:17:42;6.90;93.80
1700;DHT22;847;48.058;7.810;2023-03-03T18:20:27;6.80;93.70
1700;DHT22;847;48.058;7.810;2023-03-03T18:23:27;6.80;93.90
1700;DHT22;847;48.058;7.810;2023-03-03T18:26:35;6.70;94.00
1700;DHT22;847;48.058;7.810;2023-03-03T18:29:19;6.60;94.20
1700;DHT22;847;48.058;7.810;2023-03-03T18:31:49;6.70;94.20
1700;DHT22;847;48.058;7.810;2023-03-03T18:34:36;7.00;95.60